Attica, Michigan
Current Conditions -  °F | °C
As of 8:53 PM on Saturday 25 Oct 2014 (Local Time) from KD95 Reporting Station
Clear Clear  
Wind Chill: 56°   Ceiling: Unl
Heat Index: 56°   Visibility: 10mi
Dew Point: 30°   Wind: 8mph
Humidity: 37%   Direction: 290°WNW
Pressure: 29.77"   Gusts: 18mph
Location:  43.03°N, 83.17°W
Report Text: KD95 260053Z AUTO 29007G16KT 10SM CLR 13/M01 A2977 RMK AO2 T01341009
Loading
Personal Weather Stations






























Interactive Weather Map
Tropical Storm Tracking
New forecast layout! Learn more

10-Day Weather Forecast

Advertisements
Track Severe Weather on mobile